sensor_id;sensor_type;location;lat;lon;timestamp;P1;durP1;ratioP1;P2;durP2;ratioP2
75417;SDS011;63997;52.112;5.420;2023-07-24T00:01:04;3.20;;;2.40;;
75417;SDS011;63997;52.112;5.420;2023-07-24T00:03:30;4.97;;;2.90;;
75417;SDS011;63997;52.112;5.420;2023-07-24T00:05:57;4.00;;;2.88;;
75417;SDS011;63997;52.112;5.420;2023-07-24T00:08:25;4.28;;;3.05;;
75417;SDS011;63997;52.112;5.420;2023-07-24T00:10:51;3.58;;;2.83;;
75417;SDS011;63997;52.112;5.420;2023-07-24T00:13:18;4.20;;;2.72;;
75417;SDS011;63997;52.112;5.420;2023-07-24T00:15:44;4.63;;;2.80;;
75417;SDS011;63997;52.112;5.420;2023-07-24T00:18:11;5.03;;;3.25;;
75417;SDS011;63997;52.112;5.420;2023-07-24T00:20:40;3.53;;;2.60;;
75417;SDS011;63997;52.112;5.420;2023-07-24T00:23:06;4.60;;;2.88;;
75417;SDS011;63997;52.112;5.420;2023-07-24T00:25:33;4.88;;;3.03;;
75417;SDS011;63997;52.112;5.420;2023-07-24T00:27:59;3.43;;;2.97;;
75417;SDS011;63997;52.112;5.420;2023-07-24T00:30:25;3.22;;;2.92;;
75417;SDS011;63997;52.112;5.420;2023-07-24T00:32:52;6.78;;;3.15;;
75417;SDS011;63997;52.112;5.420;2023-07-24T00:35:18;4.60;;;2.65;;
75417;SDS011;63997;52.112;5.420;2023-07-24T00:37:45;5.95;;;3.25;;
75417;SDS011;63997;52.112;5.420;2023-07-24T00:40:11;4.40;;;3.27;;
75417;SDS011;63997;52.112;5.420;2023-07-24T00:42:38;4.00;;;3.30;;
75417;SDS011;63997;52.112;5.420;2023-07-24T00:45:04;4.85;;;3.53;;
75417;SDS011;63997;52.112;5.420;2023-07-24T00:47:31;4.55;;;3.20;;
75417;SDS011;63997;52.112;5.420;2023-07-24T00:49:57;3.95;;;3.17;;
75417;SDS011;63997;52.112;5.420;2023-07-24T00:52:24;3.30;;;3.00;;
75417;SDS011;63997;52.112;5.420;2023-07-24T00:54:51;3.92;;;3.45;;
75417;SDS011;63997;52.112;5.420;2023-07-24T00:57:18;4.80;;;3.42;;
75417;SDS011;63997;52.112;5.420;2023-07-24T00:59:46;3.80;;;3.42;;
75417;SDS011;63997;52.112;5.420;2023-07-24T01:02:16;4.22;;;3.83;;
75417;SDS011;63997;52.112;5.420;2023-07-24T01:04:42;3.73;;;3.13;;
75417;SDS011;63997;52.112;5.420;2023-07-24T01:07:08;4.70;;;3.65;;
75417;SDS011;63997;52.112;5.420;2023-07-24T01:09:35;4.90;;;4.20;;
75417;SDS011;63997;52.112;5.420;2023-07-24T01:12:05;4.65;;;3.72;;
75417;SDS011;63997;52.112;5.420;2023-07-24T01:14:43;5.13;;;3.35;;
75417;SDS011;63997;52.112;5.420;2023-07-24T01:17:15;5.00;;;3.80;;
75417;SDS011;63997;52.112;5.420;2023-07-24T01:19:46;7.03;;;4.38;;
75417;SDS011;63997;52.112;5.420;2023-07-24T01:22:20;4.93;;;4.10;;
75417;SDS011;63997;52.112;5.420;2023-07-24T01:25:05;3.90;;;3.45;;
75417;SDS011;63997;52.112;5.420;2023-07-24T01:27:43;4.03;;;3.63;;
75417;SDS011;63997;52.112;5.420;2023-07-24T01:30:16;4.67;;;3.47;;
75417;SDS011;63997;52.112;5.420;2023-07-24T01:32:44;7.13;;;3.47;;
75417;SDS011;63997;52.112;5.420;2023-07-24T01:35:11;4.32;;;3.72;;
75417;SDS011;63997;52.112;5.420;2023-07-24T01:37:38;4.93;;;3.55;;
75417;SDS011;63997;52.112;5.420;2023-07-24T01:40:07;4.57;;;4.03;;
75417;SDS011;63997;52.112;5.420;2023-07-24T01:42:34;4.20;;;3.70;;
75417;SDS011;63997;52.112;5.420;2023-07-24T01:45:02;4.13;;;3.40;;
75417;SDS011;63997;52.112;5.420;2023-07-24T01:47:29;3.83;;;3.42;;
75417;SDS011;63997;52.112;5.420;2023-07-24T01:49:56;6.93;;;3.88;;
75417;SDS011;63997;52.112;5.420;2023-07-24T01:52:22;6.38;;;4.07;;
75417;SDS011;63997;52.112;5.420;2023-07-24T01:54:49;4.77;;;3.63;;
75417;SDS011;63997;52.112;5.420;2023-07-24T01:57:16;4.38;;;3.97;;
75417;SDS011;63997;52.112;5.420;2023-07-24T01:59:42;6.25;;;3.88;;
75417;SDS011;63997;52.112;5.420;2023-07-24T02:02:11;4.43;;;3.95;;
75417;SDS011;63997;52.112;5.420;2023-07-24T02:04:37;4.88;;;4.40;;
75417;SDS011;63997;52.112;5.420;2023-07-24T02:07:03;4.40;;;3.80;;
75417;SDS011;63997;52.112;5.420;2023-07-24T02:09:30;4.65;;;3.92;;
75417;SDS011;63997;52.112;5.420;2023-07-24T02:11:58;5.28;;;4.45;;
75417;SDS011;63997;52.112;5.420;2023-07-24T02:14:24;5.25;;;4.18;;
75417;SDS011;63997;52.112;5.420;2023-07-24T02:16:53;4.45;;;4.00;;
75417;SDS011;63997;52.112;5.420;2023-07-24T02:19:19;5.00;;;4.40;;
75417;SDS011;63997;52.112;5.420;2023-07-24T02:21:46;4.53;;;3.88;;
75417;SDS011;63997;52.112;5.420;2023-07-24T02:24:12;5.68;;;4.65;;
75417;SDS011;63997;52.112;5.420;2023-07-24T02:26:39;7.10;;;4.25;;
75417;SDS011;63997;52.112;5.420;2023-07-24T02:29:05;4.20;;;3.80;;
75417;SDS011;63997;52.112;5.420;2023-07-24T02:31:31;4.20;;;3.80;;
75417;SDS011;63997;52.112;5.420;2023-07-24T02:33:58;4.22;;;3.83;;
75417;SDS011;63997;52.112;5.420;2023-07-24T02:36:26;4.70;;;4.28;;
75417;SDS011;63997;52.112;5.420;2023-07-24T02:38:53;4.65;;;3.95;;
75417;SDS011;63997;52.112;5.420;2023-07-24T02:41:19;4.75;;;3.38;;
75417;SDS011;63997;52.112;5.420;2023-07-24T02:43:45;4.70;;;3.30;;
75417;SDS011;63997;52.112;5.420;2023-07-24T02:46:12;4.38;;;3.38;;
75417;SDS011;63997;52.112;5.420;2023-07-24T02:48:38;5.10;;;3.80;;
75417;SDS011;63997;52.112;5.420;2023-07-24T02:51:05;5.72;;;4.07;;
75417;SDS011;63997;52.112;5.420;2023-07-24T02:53:31;5.25;;;4.47;;
75417;SDS011;63997;52.112;5.420;2023-07-24T02:55:57;4.63;;;3.70;;
75417;SDS011;63997;52.112;5.420;2023-07-24T02:58:25;4.53;;;3.17;;
75417;SDS011;63997;52.112;5.420;2023-07-24T03:00:52;4.35;;;3.88;;
75417;SDS011;63997;52.112;5.420;2023-07-24T03:03:18;5.53;;;4.38;;
75417;SDS011;63997;52.112;5.420;2023-07-24T03:05:45;7.00;;;4.00;;
75417;SDS011;63997;52.112;5.420;2023-07-24T03:08:11;4.63;;;3.37;;
75417;SDS011;63997;52.112;5.420;2023-07-24T03:10:41;4.80;;;3.22;;
75417;SDS011;63997;52.112;5.420;2023-07-24T03:13:09;3.80;;;3.42;;
75417;SDS011;63997;52.112;5.420;2023-07-24T03:15:36;4.07;;;3.13;;
75417;SDS011;63997;52.112;5.420;2023-07-24T03:18:02;5.97;;;3.35;;
75417;SDS011;63997;52.112;5.420;2023-07-24T03:20:28;3.50;;;2.87;;
75417;SDS011;63997;52.112;5.420;2023-07-24T03:22:55;6.20;;;2.97;;
75417;SDS011;63997;52.112;5.420;2023-07-24T03:25:21;3.63;;;2.42;;
75417;SDS011;63997;52.112;5.420;2023-07-24T03:27:48;3.60;;;3.03;;
75417;SDS011;63997;52.112;5.420;2023-07-24T03:30:14;3.85;;;2.60;;
75417;SDS011;63997;52.112;5.420;2023-07-24T03:32:41;4.20;;;2.73;;
75417;SDS011;63997;52.112;5.420;2023-07-24T03:35:08;3.83;;;2.78;;
75417;SDS011;63997;52.112;5.420;2023-07-24T03:37:34;5.60;;;2.67;;
75417;SDS011;63997;52.112;5.420;2023-07-24T03:40:02;4.93;;;2.92;;
75417;SDS011;63997;52.112;5.420;2023-07-24T03:42:29;4.35;;;2.85;;
75417;SDS011;63997;52.112;5.420;2023-07-24T03:44:57;4.33;;;3.20;;
75417;SDS011;63997;52.112;5.420;2023-07-24T03:47:24;4.30;;;3.13;;
75417;SDS011;63997;52.112;5.420;2023-07-24T03:49:50;5.72;;;3.17;;
75417;SDS011;63997;52.112;5.420;2023-07-24T03:52:17;6.18;;;3.50;;
75417;SDS011;63997;52.112;5.420;2023-07-24T03:54:45;4.70;;;3.20;;
75417;SDS011;63997;52.112;5.420;2023-07-24T03:57:12;4.63;;;2.80;;
75417;SDS011;63997;52.112;5.420;2023-07-24T03:59:39;3.75;;;2.97;;
75417;SDS011;63997;52.112;5.420;2023-07-24T04:02:07;4.82;;;3.50;;
75417;SDS011;63997;52.112;5.420;2023-07-24T04:04:36;5.05;;;2.85;;
75417;SDS011;63997;52.112;5.420;2023-07-24T04:07:03;4.32;;;3.38;;
75417;SDS011;63997;52.112;5.420;2023-07-24T04:09:30;5.20;;;3.40;;
75417;SDS011;63997;52.112;5.420;2023-07-24T04:11:57;5.40;;;3.10;;
75417;SDS011;63997;52.112;5.420;2023-07-24T04:14:24;4.63;;;3.22;;
75417;SDS011;63997;52.112;5.420;2023-07-24T04:16:50;6.20;;;4.10;;
75417;SDS011;63997;52.112;5.420;2023-07-24T04:19:17;7.55;;;3.75;;
75417;SDS011;63997;52.112;5.420;2023-07-24T04:21:43;6.90;;;3.97;;
75417;SDS011;63997;52.112;5.420;2023-07-24T04:24:10;6.07;;;3.30;;
75417;SDS011;63997;52.112;5.420;2023-07-24T04:26:36;7.28;;;3.85;;
75417;SDS011;63997;52.112;5.420;2023-07-24T04:29:03;4.72;;;3.35;;
75417;SDS011;63997;52.112;5.420;2023-07-24T04:31:29;7.43;;;3.97;;
75417;SDS011;63997;52.112;5.420;2023-07-24T04:33:56;6.10;;;3.83;;
75417;SDS011;63997;52.112;5.420;2023-07-24T04:36:23;8.27;;;4.22;;
75417;SDS011;63997;52.112;5.420;2023-07-24T04:38:54;7.60;;;4.07;;
75417;SDS011;63997;52.112;5.420;2023-07-24T04:41:20;6.50;;;3.95;;
75417;SDS011;63997;52.112;5.420;2023-07-24T04:43:47;5.88;;;4.00;;
75417;SDS011;63997;52.112;5.420;2023-07-24T04:46:13;6.90;;;4.07;;
75417;SDS011;63997;52.112;5.420;2023-07-24T04:48:39;6.47;;;4.32;;
75417;SDS011;63997;52.112;5.420;2023-07-24T04:51:06;6.38;;;3.70;;
75417;SDS011;63997;52.112;5.420;2023-07-24T04:53:32;6.72;;;4.47;;
75417;SDS011;63997;52.112;5.420;2023-07-24T04:55:59;5.57;;;4.00;;
75417;SDS011;63997;52.112;5.420;2023-07-24T04:58:25;6.37;;;4.27;;
75417;SDS011;63997;52.112;5.420;2023-07-24T05:00:51;6.53;;;4.18;;
75417;SDS011;63997;52.112;5.420;2023-07-24T05:03:18;7.65;;;4.72;;
75417;SDS011;63997;52.112;5.420;2023-07-24T05:05:48;5.38;;;4.28;;
75417;SDS011;63997;52.112;5.420;2023-07-24T05:08:20;5.20;;;4.07;;
75417;SDS011;63997;52.112;5.420;2023-07-24T05:10:47;8.70;;;4.60;;
75417;SDS011;63997;52.112;5.420;2023-07-24T05:13:13;7.18;;;4.57;;
75417;SDS011;63997;52.112;5.420;2023-07-24T05:15:40;7.18;;;5.10;;
75417;SDS011;63997;52.112;5.420;2023-07-24T05:18:06;8.60;;;4.60;;
75417;SDS011;63997;52.112;5.420;2023-07-24T05:20:32;6.10;;;4.38;;
75417;SDS011;63997;52.112;5.420;2023-07-24T05:22:59;5.57;;;4.43;;
75417;SDS011;63997;52.112;5.420;2023-07-24T05:25:25;5.85;;;4.25;;
75417;SDS011;63997;52.112;5.420;2023-07-24T05:27:55;8.05;;;4.90;;
75417;SDS011;63997;52.112;5.420;2023-07-24T05:30:21;7.20;;;4.18;;
75417;SDS011;63997;52.112;5.420;2023-07-24T05:32:47;6.68;;;4.47;;
75417;SDS011;63997;52.112;5.420;2023-07-24T05:35:14;6.33;;;4.93;;
75417;SDS011;63997;52.112;5.420;2023-07-24T05:37:40;7.38;;;5.03;;
75417;SDS011;63997;52.112;5.420;2023-07-24T05:40:07;8.13;;;5.10;;
75417;SDS011;63997;52.112;5.420;2023-07-24T05:42:34;8.25;;;4.60;;
75417;SDS011;63997;52.112;5.420;2023-07-24T05:45:05;7.43;;;4.68;;
75417;SDS011;63997;52.112;5.420;2023-07-24T05:47:32;7.17;;;4.40;;
75417;SDS011;63997;52.112;5.420;2023-07-24T05:49:59;7.97;;;4.80;;
75417;SDS011;63997;52.112;5.420;2023-07-24T05:52:25;7.47;;;5.00;;
75417;SDS011;63997;52.112;5.420;2023-07-24T05:54:52;8.95;;;4.45;;
75417;SDS011;63997;52.112;5.420;2023-07-24T05:57:18;7.32;;;4.65;;
75417;SDS011;63997;52.112;5.420;2023-07-24T05:59:44;9.23;;;4.80;;
75417;SDS011;63997;52.112;5.420;2023-07-24T06:02:11;9.85;;;5.45;;
75417;SDS011;63997;52.112;5.420;2023-07-24T06:04:38;7.60;;;5.32;;
75417;SDS011;63997;52.112;5.420;2023-07-24T06:07:04;9.07;;;4.60;;
75417;SDS011;63997;52.112;5.420;2023-07-24T06:09:30;7.40;;;5.00;;
75417;SDS011;63997;52.112;5.420;2023-07-24T06:11:57;9.90;;;4.77;;
75417;SDS011;63997;52.112;5.420;2023-07-24T06:14:23;6.90;;;3.90;;
75417;SDS011;63997;52.112;5.420;2023-07-24T06:16:50;8.52;;;5.00;;
75417;SDS011;63997;52.112;5.420;2023-07-24T06:19:16;12.90;;;5.25;;
75417;SDS011;63997;52.112;5.420;2023-07-24T06:21:47;7.90;;;4.90;;
75417;SDS011;63997;52.112;5.420;2023-07-24T06:24:14;10.37;;;5.50;;
75417;SDS011;63997;52.112;5.420;2023-07-24T06:26:42;8.10;;;5.05;;
75417;SDS011;63997;52.112;5.420;2023-07-24T06:29:08;7.75;;;4.82;;
75417;SDS011;63997;52.112;5.420;2023-07-24T06:31:35;8.63;;;4.97;;
75417;SDS011;63997;52.112;5.420;2023-07-24T06:34:01;10.27;;;5.57;;
75417;SDS011;63997;52.112;5.420;2023-07-24T06:36:27;9.63;;;4.40;;
75417;SDS011;63997;52.112;5.420;2023-07-24T06:38:57;8.35;;;4.38;;
75417;SDS011;63997;52.112;5.420;2023-07-24T06:41:23;7.60;;;4.55;;
75417;SDS011;63997;52.112;5.420;2023-07-24T06:43:51;8.27;;;4.50;;
75417;SDS011;63997;52.112;5.420;2023-07-24T06:46:19;10.43;;;4.18;;
75417;SDS011;63997;52.112;5.420;2023-07-24T06:48:45;7.93;;;4.30;;
75417;SDS011;63997;52.112;5.420;2023-07-24T06:51:12;10.52;;;4.28;;
75417;SDS011;63997;52.112;5.420;2023-07-24T06:53:38;10.18;;;4.60;;
75417;SDS011;63997;52.112;5.420;2023-07-24T06:56:04;6.47;;;3.42;;
75417;SDS011;63997;52.112;5.420;2023-07-24T06:58:31;8.05;;;3.55;;
75417;SDS011;63997;52.112;5.420;2023-07-24T07:00:57;7.37;;;3.93;;
75417;SDS011;63997;52.112;5.420;2023-07-24T07:03:24;6.13;;;3.80;;
75417;SDS011;63997;52.112;5.420;2023-07-24T07:05:50;8.23;;;4.10;;
75417;SDS011;63997;52.112;5.420;2023-07-24T07:08:16;7.28;;;3.80;;
75417;SDS011;63997;52.112;5.420;2023-07-24T07:10:43;8.13;;;4.50;;
75417;SDS011;63997;52.112;5.420;2023-07-24T07:13:09;10.03;;;4.20;;
75417;SDS011;63997;52.112;5.420;2023-07-24T07:15:36;6.20;;;4.13;;
75417;SDS011;63997;52.112;5.420;2023-07-24T07:18:02;7.43;;;3.75;;
75417;SDS011;63997;52.112;5.420;2023-07-24T07:20:29;4.97;;;3.72;;
75417;SDS011;63997;52.112;5.420;2023-07-24T07:22:56;9.90;;;3.95;;
75417;SDS011;63997;52.112;5.420;2023-07-24T07:25:27;5.67;;;3.70;;
75417;SDS011;63997;52.112;5.420;2023-07-24T07:27:53;6.13;;;4.03;;
75417;SDS011;63997;52.112;5.420;2023-07-24T07:30:20;8.05;;;4.45;;
75417;SDS011;63997;52.112;5.420;2023-07-24T07:32:46;8.77;;;4.18;;
75417;SDS011;63997;52.112;5.420;2023-07-24T07:35:14;8.60;;;4.35;;
75417;SDS011;63997;52.112;5.420;2023-07-24T07:37:41;8.53;;;4.57;;
75417;SDS011;63997;52.112;5.420;2023-07-24T07:40:07;6.15;;;4.65;;
75417;SDS011;63997;52.112;5.420;2023-07-24T07:42:34;7.75;;;4.53;;
75417;SDS011;63997;52.112;5.420;2023-07-24T07:45:02;6.85;;;4.45;;
75417;SDS011;63997;52.112;5.420;2023-07-24T07:47:29;6.10;;;4.10;;
75417;SDS011;63997;52.112;5.420;2023-07-24T07:49:56;8.10;;;4.83;;
75417;SDS011;63997;52.112;5.420;2023-07-24T07:52:22;6.68;;;4.40;;
75417;SDS011;63997;52.112;5.420;2023-07-24T07:54:49;7.60;;;4.63;;
75417;SDS011;63997;52.112;5.420;2023-07-24T07:57:15;8.38;;;4.80;;
75417;SDS011;63997;52.112;5.420;2023-07-24T07:59:42;7.65;;;4.95;;
75417;SDS011;63997;52.112;5.420;2023-07-24T08:02:08;11.30;;;4.80;;
75417;SDS011;63997;52.112;5.420;2023-07-24T08:04:35;9.38;;;4.40;;
75417;SDS011;63997;52.112;5.420;2023-07-24T08:07:01;10.82;;;5.07;;
75417;SDS011;63997;52.112;5.420;2023-07-24T08:09:28;8.70;;;4.88;;
75417;SDS011;63997;52.112;5.420;2023-07-24T08:11:55;7.68;;;5.18;;
75417;SDS011;63997;52.112;5.420;2023-07-24T08:14:21;7.70;;;4.67;;
75417;SDS011;63997;52.112;5.420;2023-07-24T08:16:47;10.25;;;4.82;;
75417;SDS011;63997;52.112;5.420;2023-07-24T08:19:15;7.55;;;4.95;;
75417;SDS011;63997;52.112;5.420;2023-07-24T08:21:42;7.32;;;4.35;;
75417;SDS011;63997;52.112;5.420;2023-07-24T08:24:08;8.02;;;4.40;;
75417;SDS011;63997;52.112;5.420;2023-07-24T08:26:38;6.10;;;4.03;;
75417;SDS011;63997;52.112;5.420;2023-07-24T08:29:05;10.43;;;4.82;;
75417;SDS011;63997;52.112;5.420;2023-07-24T08:31:32;7.57;;;3.72;;
75417;SDS011;63997;52.112;5.420;2023-07-24T08:33:58;7.53;;;3.97;;
75417;SDS011;63997;52.112;5.420;2023-07-24T08:36:24;6.00;;;4.05;;
75417;SDS011;63997;52.112;5.420;2023-07-24T08:38:51;5.73;;;4.07;;
75417;SDS011;63997;52.112;5.420;2023-07-24T08:41:17;6.43;;;4.05;;
75417;SDS011;63997;52.112;5.420;2023-07-24T08:43:44;6.80;;;3.83;;
75417;SDS011;63997;52.112;5.420;2023-07-24T08:46:11;7.78;;;4.43;;
75417;SDS011;63997;52.112;5.420;2023-07-24T08:48:39;8.95;;;4.53;;
75417;SDS011;63997;52.112;5.420;2023-07-24T08:51:11;5.83;;;4.50;;
75417;SDS011;63997;52.112;5.420;2023-07-24T08:53:39;6.45;;;4.20;;
75417;SDS011;63997;52.112;5.420;2023-07-24T08:56:08;7.05;;;4.20;;
75417;SDS011;63997;52.112;5.420;2023-07-24T08:58:36;5.13;;;4.00;;
75417;SDS011;63997;52.112;5.420;2023-07-24T09:01:03;6.10;;;4.03;;
75417;SDS011;63997;52.112;5.420;2023-07-24T09:03:30;6.87;;;4.27;;
75417;SDS011;63997;52.112;5.420;2023-07-24T09:05:58;9.25;;;5.50;;
75417;SDS011;63997;52.112;5.420;2023-07-24T09:08:30;7.72;;;4.88;;
75417;SDS011;63997;52.112;5.420;2023-07-24T09:11:02;7.68;;;5.28;;
75417;SDS011;63997;52.112;5.420;2023-07-24T09:13:29;7.45;;;4.30;;
75417;SDS011;63997;52.112;5.420;2023-07-24T09:15:57;8.20;;;5.00;;
75417;SDS011;63997;52.112;5.420;2023-07-24T09:18:25;9.02;;;5.10;;
75417;SDS011;63997;52.112;5.420;2023-07-24T09:20:51;8.13;;;4.22;;
75417;SDS011;63997;52.112;5.420;2023-07-24T09:23:27;7.28;;;4.88;;
75417;SDS011;63997;52.112;5.420;2023-07-24T09:25:54;9.52;;;4.80;;
75417;SDS011;63997;52.112;5.420;2023-07-24T09:28:22;4.80;;;4.10;;
75417;SDS011;63997;52.112;5.420;2023-07-24T09:30:53;5.70;;;4.75;;
75417;SDS011;63997;52.112;5.420;2023-07-24T09:33:33;7.43;;;4.13;;
75417;SDS011;63997;52.112;5.420;2023-07-24T09:36:02;7.43;;;4.72;;
75417;SDS011;63997;52.112;5.420;2023-07-24T09:38:30;5.53;;;4.55;;
75417;SDS011;63997;52.112;5.420;2023-07-24T09:40:57;7.07;;;4.57;;
75417;SDS011;63997;52.112;5.420;2023-07-24T09:43:24;5.47;;;4.30;;
75417;SDS011;63997;52.112;5.420;2023-07-24T09:46:06;8.30;;;5.15;;
75417;SDS011;63997;52.112;5.420;2023-07-24T09:48:47;7.63;;;4.82;;
75417;SDS011;63997;52.112;5.420;2023-07-24T09:51:33;9.00;;;4.80;;
75417;SDS011;63997;52.112;5.420;2023-07-24T09:54:07;6.50;;;4.30;;
75417;SDS011;63997;52.112;5.420;2023-07-24T09:56:41;8.73;;;4.63;;
75417;SDS011;63997;52.112;5.420;2023-07-24T09:59:19;7.65;;;3.97;;
75417;SDS011;63997;52.112;5.420;2023-07-24T10:01:47;5.60;;;4.85;;
75417;SDS011;63997;52.112;5.420;2023-07-24T10:04:14;7.78;;;4.50;;
75417;SDS011;63997;52.112;5.420;2023-07-24T10:06:42;7.57;;;5.00;;
75417;SDS011;63997;52.112;5.420;2023-07-24T10:09:09;7.05;;;5.30;;
75417;SDS011;63997;52.112;5.420;2023-07-24T10:11:37;8.85;;;4.50;;
75417;SDS011;63997;52.112;5.420;2023-07-24T10:14:07;9.68;;;3.83;;
75417;SDS011;63997;52.112;5.420;2023-07-24T10:16:34;8.05;;;4.50;;
75417;SDS011;63997;52.112;5.420;2023-07-24T10:19:00;7.03;;;4.17;;
75417;SDS011;63997;52.112;5.420;2023-07-24T10:21:27;6.53;;;4.47;;
75417;SDS011;63997;52.112;5.420;2023-07-24T10:23:55;7.07;;;4.15;;
75417;SDS011;63997;52.112;5.420;2023-07-24T10:26:26;7.03;;;4.38;;
75417;SDS011;63997;52.112;5.420;2023-07-24T10:28:53;9.57;;;4.50;;
75417;SDS011;63997;52.112;5.420;2023-07-24T10:31:21;5.70;;;4.70;;
75417;SDS011;63997;52.112;5.420;2023-07-24T10:33:48;6.70;;;4.50;;
75417;SDS011;63997;52.112;5.420;2023-07-24T10:36:19;5.57;;;4.10;;
75417;SDS011;63997;52.112;5.420;2023-07-24T10:38:52;5.88;;;4.05;;
75417;SDS011;63997;52.112;5.420;2023-07-24T10:41:23;6.95;;;4.18;;
75417;SDS011;63997;52.112;5.420;2023-07-24T10:44:04;8.70;;;4.50;;
75417;SDS011;63997;52.112;5.420;2023-07-24T10:46:37;6.78;;;4.70;;
75417;SDS011;63997;52.112;5.420;2023-07-24T10:49:05;8.48;;;4.85;;
75417;SDS011;63997;52.112;5.420;2023-07-24T10:51:32;8.68;;;4.20;;
75417;SDS011;63997;52.112;5.420;2023-07-24T10:54:01;5.03;;;3.03;;
75417;SDS011;63997;52.112;5.420;2023-07-24T10:56:28;7.33;;;4.00;;
75417;SDS011;63997;52.112;5.420;2023-07-24T10:58:55;5.13;;;3.25;;
75417;SDS011;63997;52.112;5.420;2023-07-24T11:01:21;3.60;;;3.30;;
75417;SDS011;63997;52.112;5.420;2023-07-24T11:03:49;7.55;;;3.60;;
75417;SDS011;63997;52.112;5.420;2023-07-24T11:06:17;5.97;;;4.03;;
75417;SDS011;63997;52.112;5.420;2023-07-24T11:08:52;8.07;;;3.80;;
75417;SDS011;63997;52.112;5.420;2023-07-24T11:11:19;9.23;;;4.25;;
75417;SDS011;63997;52.112;5.420;2023-07-24T11:13:45;6.50;;;3.78;;
75417;SDS011;63997;52.112;5.420;2023-07-24T11:16:12;4.68;;;4.22;;
75417;SDS011;63997;52.112;5.420;2023-07-24T11:18:48;7.50;;;4.53;;
75417;SDS011;63997;52.112;5.420;2023-07-24T11:21:20;6.20;;;4.50;;
75417;SDS011;63997;52.112;5.420;2023-07-24T11:23:57;7.22;;;5.15;;
75417;SDS011;63997;52.112;5.420;2023-07-24T11:26:24;5.65;;;4.50;;
75417;SDS011;63997;52.112;5.420;2023-07-24T11:28:53;7.32;;;4.32;;
75417;SDS011;63997;52.112;5.420;2023-07-24T11:31:20;5.50;;;4.22;;
75417;SDS011;63997;52.112;5.420;2023-07-24T11:33:48;6.97;;;4.83;;
75417;SDS011;63997;52.112;5.420;2023-07-24T11:36:15;8.23;;;5.47;;
75417;SDS011;63997;52.112;5.420;2023-07-24T11:38:44;9.13;;;5.70;;
75417;SDS011;63997;52.112;5.420;2023-07-24T11:41:11;7.50;;;5.50;;
75417;SDS011;63997;52.112;5.420;2023-07-24T11:43:44;7.03;;;5.82;;
75417;SDS011;63997;52.112;5.420;2023-07-24T11:46:21;9.03;;;5.83;;
75417;SDS011;63997;52.112;5.420;2023-07-24T11:48:48;8.73;;;6.25;;
75417;SDS011;63997;52.112;5.420;2023-07-24T11:51:15;8.93;;;5.93;;
75417;SDS011;63997;52.112;5.420;2023-07-24T11:53:42;7.20;;;6.10;;
75417;SDS011;63997;52.112;5.420;2023-07-24T11:56:13;8.02;;;6.05;;
75417;SDS011;63997;52.112;5.420;2023-07-24T11:58:41;7.13;;;6.13;;
75417;SDS011;63997;52.112;5.420;2023-07-24T12:01:07;8.80;;;6.60;;
75417;SDS011;63997;52.112;5.420;2023-07-24T12:03:34;9.77;;;6.45;;
75417;SDS011;63997;52.112;5.420;2023-07-24T12:06:04;9.05;;;5.80;;
75417;SDS011;63997;52.112;5.420;2023-07-24T12:08:32;7.28;;;5.38;;
75417;SDS011;63997;52.112;5.420;2023-07-24T12:11:00;7.93;;;5.03;;
75417;SDS011;63997;52.112;5.420;2023-07-24T12:13:27;9.05;;;5.22;;
75417;SDS011;63997;52.112;5.420;2023-07-24T12:15:54;8.40;;;4.75;;
75417;SDS011;63997;52.112;5.420;2023-07-24T12:18:21;6.03;;;4.35;;
75417;SDS011;63997;52.112;5.420;2023-07-24T12:20:48;7.93;;;4.68;;
75417;SDS011;63997;52.112;5.420;2023-07-24T12:23:14;6.83;;;5.07;;
75417;SDS011;63997;52.112;5.420;2023-07-24T12:25:42;6.60;;;4.60;;
75417;SDS011;63997;52.112;5.420;2023-07-24T12:28:08;14.77;;;4.90;;
75417;SDS011;63997;52.112;5.420;2023-07-24T12:30:35;8.65;;;5.20;;
75417;SDS011;63997;52.112;5.420;2023-07-24T12:33:01;7.60;;;4.88;;
75417;SDS011;63997;52.112;5.420;2023-07-24T12:35:28;9.20;;;6.17;;
75417;SDS011;63997;52.112;5.420;2023-07-24T12:37:54;9.18;;;6.00;;
75417;SDS011;63997;52.112;5.420;2023-07-24T12:40:21;7.47;;;5.65;;
75417;SDS011;63997;52.112;5.420;2023-07-24T12:42:47;7.95;;;5.68;;
75417;SDS011;63997;52.112;5.420;2023-07-24T12:45:14;6.40;;;5.35;;
75417;SDS011;63997;52.112;5.420;2023-07-24T12:47:40;6.33;;;5.47;;
75417;SDS011;63997;52.112;5.420;2023-07-24T12:50:07;9.00;;;5.63;;
75417;SDS011;63997;52.112;5.420;2023-07-24T12:52:33;8.68;;;5.40;;
75417;SDS011;63997;52.112;5.420;2023-07-24T12:55:00;7.47;;;5.47;;
75417;SDS011;63997;52.112;5.420;2023-07-24T12:57:28;9.38;;;5.30;;
75417;SDS011;63997;52.112;5.420;2023-07-24T12:59:55;6.57;;;5.40;;
75417;SDS011;63997;52.112;5.420;2023-07-24T13:02:21;5.15;;;4.18;;
75417;SDS011;63997;52.112;5.420;2023-07-24T13:04:47;5.85;;;2.70;;
75417;SDS011;63997;52.112;5.420;2023-07-24T13:07:14;5.10;;;2.85;;
75417;SDS011;63997;52.112;5.420;2023-07-24T13:09:41;4.45;;;2.90;;
75417;SDS011;63997;52.112;5.420;2023-07-24T13:12:08;4.43;;;3.90;;
75417;SDS011;63997;52.112;5.420;2023-07-24T13:14:35;7.03;;;4.28;;
75417;SDS011;63997;52.112;5.420;2023-07-24T13:17:04;4.63;;;3.72;;
75417;SDS011;63997;52.112;5.420;2023-07-24T13:19:31;7.53;;;4.15;;
75417;SDS011;63997;52.112;5.420;2023-07-24T13:21:57;7.13;;;4.85;;
75417;SDS011;63997;52.112;5.420;2023-07-24T13:24:25;8.37;;;4.70;;
75417;SDS011;63997;52.112;5.420;2023-07-24T13:26:52;9.57;;;5.40;;
75417;SDS011;63997;52.112;5.420;2023-07-24T13:29:18;12.50;;;5.85;;
75417;SDS011;63997;52.112;5.420;2023-07-24T13:31:44;13.35;;;5.80;;
75417;SDS011;63997;52.112;5.420;2023-07-24T13:34:11;12.43;;;5.47;;
75417;SDS011;63997;52.112;5.420;2023-07-24T13:36:37;7.47;;;4.97;;
75417;SDS011;63997;52.112;5.420;2023-07-24T13:39:04;6.13;;;4.80;;
75417;SDS011;63997;52.112;5.420;2023-07-24T13:41:30;8.05;;;4.43;;
75417;SDS011;63997;52.112;5.420;2023-07-24T13:43:58;5.78;;;4.03;;
75417;SDS011;63997;52.112;5.420;2023-07-24T13:46:24;8.50;;;4.00;;
75417;SDS011;63997;52.112;5.420;2023-07-24T13:48:51;8.47;;;4.47;;
75417;SDS011;63997;52.112;5.420;2023-07-24T13:51:17;8.70;;;4.45;;
75417;SDS011;63997;52.112;5.420;2023-07-24T13:53:44;8.02;;;5.05;;
75417;SDS011;63997;52.112;5.420;2023-07-24T13:56:13;6.05;;;4.50;;
75417;SDS011;63997;52.112;5.420;2023-07-24T13:58:40;3.60;;;2.58;;
75417;SDS011;63997;52.112;5.420;2023-07-24T14:01:06;3.83;;;2.20;;
75417;SDS011;63997;52.112;5.420;2023-07-24T14:03:33;3.17;;;2.53;;
75417;SDS011;63997;52.112;5.420;2023-07-24T14:06:00;4.82;;;2.58;;
75417;SDS011;63997;52.112;5.420;2023-07-24T14:08:26;4.75;;;2.70;;
75417;SDS011;63997;52.112;5.420;2023-07-24T14:10:53;4.28;;;3.17;;
75417;SDS011;63997;52.112;5.420;2023-07-24T14:13:19;3.13;;;2.67;;
75417;SDS011;63997;52.112;5.420;2023-07-24T14:15:46;4.22;;;3.78;;
75417;SDS011;63997;52.112;5.420;2023-07-24T14:18:12;5.55;;;4.03;;
75417;SDS011;63997;52.112;5.420;2023-07-24T14:20:39;5.20;;;4.45;;
75417;SDS011;63997;52.112;5.420;2023-07-24T14:23:06;5.93;;;4.72;;
75417;SDS011;63997;52.112;5.420;2023-07-24T14:25:34;7.03;;;4.90;;
75417;SDS011;63997;52.112;5.420;2023-07-24T14:28:00;8.13;;;5.22;;
75417;SDS011;63997;52.112;5.420;2023-07-24T14:30:26;6.90;;;6.07;;
75417;SDS011;63997;52.112;5.420;2023-07-24T14:32:53;8.45;;;5.32;;
75417;SDS011;63997;52.112;5.420;2023-07-24T14:35:19;7.55;;;6.03;;
75417;SDS011;63997;52.112;5.420;2023-07-24T14:37:46;8.37;;;4.93;;
75417;SDS011;63997;52.112;5.420;2023-07-24T14:40:13;7.75;;;4.78;;
75417;SDS011;63997;52.112;5.420;2023-07-24T14:42:39;8.73;;;4.22;;
75417;SDS011;63997;52.112;5.420;2023-07-24T14:45:07;5.40;;;3.40;;
75417;SDS011;63997;52.112;5.420;2023-07-24T14:47:34;6.20;;;3.00;;
75417;SDS011;63997;52.112;5.420;2023-07-24T14:50:00;6.00;;;2.30;;